sensor_id;sensor_type;location;lat;lon;timestamp;P1;durP1;ratioP1;P2;durP2;ratioP2
49131;SDS011;35149;51.196;6.204;2023-08-06T00:00:13;2.00;;;1.90;;
49131;SDS011;35149;51.196;6.204;2023-08-06T00:02:44;4.72;;;1.80;;
49131;SDS011;35149;51.196;6.204;2023-08-06T00:05:10;1.77;;;1.42;;
49131;SDS011;35149;51.196;6.204;2023-08-06T00:07:37;3.65;;;2.03;;
49131;SDS011;35149;51.196;6.204;2023-08-06T00:10:04;1.90;;;1.70;;
49131;SDS011;35149;51.196;6.204;2023-08-06T00:12:31;2.53;;;1.70;;
49131;SDS011;35149;51.196;6.204;2023-08-06T00:15:00;1.70;;;1.60;;
49131;SDS011;35149;51.196;6.204;2023-08-06T00:17:31;2.00;;;1.80;;
49131;SDS011;35149;51.196;6.204;2023-08-06T00:19:58;2.75;;;1.50;;
49131;SDS011;35149;51.196;6.204;2023-08-06T00:22:35;2.45;;;1.50;;
49131;SDS011;35149;51.196;6.204;2023-08-06T00:25:05;3.40;;;1.38;;
49131;SDS011;35149;51.196;6.204;2023-08-06T00:27:34;1.77;;;1.20;;
49131;SDS011;35149;51.196;6.204;2023-08-06T00:30:04;3.72;;;1.80;;
49131;SDS011;35149;51.196;6.204;2023-08-06T00:32:34;1.52;;;1.42;;
49131;SDS011;35149;51.196;6.204;2023-08-06T00:35:00;3.55;;;1.90;;
49131;SDS011;35149;51.196;6.204;2023-08-06T00:37:28;2.30;;;2.00;;
49131;SDS011;35149;51.196;6.204;2023-08-06T00:39:54;2.58;;;1.75;;
49131;SDS011;35149;51.196;6.204;2023-08-06T00:42:25;2.08;;;1.58;;
49131;SDS011;35149;51.196;6.204;2023-08-06T00:44:52;2.25;;;2.00;;
49131;SDS011;35149;51.196;6.204;2023-08-06T00:47:23;1.53;;;1.43;;
49131;SDS011;35149;51.196;6.204;2023-08-06T00:49:53;1.73;;;1.58;;
49131;SDS011;35149;51.196;6.204;2023-08-06T00:52:21;3.42;;;1.85;;
49131;SDS011;35149;51.196;6.204;2023-08-06T00:54:51;1.90;;;1.70;;
49131;SDS011;35149;51.196;6.204;2023-08-06T00:57:18;3.20;;;2.55;;
49131;SDS011;35149;51.196;6.204;2023-08-06T00:59:48;1.92;;;1.48;;
49131;SDS011;35149;51.196;6.204;2023-08-06T01:02:15;3.35;;;1.60;;
49131;SDS011;35149;51.196;6.204;2023-08-06T01:04:43;1.50;;;1.40;;
49131;SDS011;35149;51.196;6.204;2023-08-06T01:15:49;2.05;;;1.67;;
49131;SDS011;35149;51.196;6.204;2023-08-06T01:18:17;2.78;;;1.52;;
49131;SDS011;35149;51.196;6.204;2023-08-06T01:20:45;1.85;;;1.70;;
49131;SDS011;35149;51.196;6.204;2023-08-06T01:23:12;1.95;;;1.63;;
49131;SDS011;35149;51.196;6.204;2023-08-06T01:25:45;2.30;;;1.65;;
49131;SDS011;35149;51.196;6.204;2023-08-06T01:28:40;2.85;;;1.73;;
49131;SDS011;35149;51.196;6.204;2023-08-06T01:31:21;2.90;;;1.83;;
49131;SDS011;35149;51.196;6.204;2023-08-06T01:33:53;3.67;;;1.77;;
49131;SDS011;35149;51.196;6.204;2023-08-06T01:36:20;2.95;;;1.50;;
49131;SDS011;35149;51.196;6.204;2023-08-06T01:38:51;2.72;;;2.08;;
49131;SDS011;35149;51.196;6.204;2023-08-06T01:41:21;1.83;;;1.73;;
49131;SDS011;35149;51.196;6.204;2023-08-06T01:43:48;2.60;;;2.00;;
49131;SDS011;35149;51.196;6.204;2023-08-06T01:46:14;5.93;;;2.10;;
49131;SDS011;35149;51.196;6.204;2023-08-06T01:48:41;2.33;;;1.80;;
49131;SDS011;35149;51.196;6.204;2023-08-06T01:51:10;2.80;;;1.70;;
49131;SDS011;35149;51.196;6.204;2023-08-06T01:53:37;3.40;;;1.80;;
49131;SDS011;35149;51.196;6.204;2023-08-06T01:56:04;6.15;;;1.88;;
49131;SDS011;35149;51.196;6.204;2023-08-06T01:58:35;2.67;;;1.75;;
49131;SDS011;35149;51.196;6.204;2023-08-06T02:01:06;4.07;;;2.00;;
49131;SDS011;35149;51.196;6.204;2023-08-06T02:03:33;4.90;;;1.90;;
49131;SDS011;35149;51.196;6.204;2023-08-06T02:06:05;2.60;;;2.08;;
49131;SDS011;35149;51.196;6.204;2023-08-06T02:08:32;3.90;;;1.77;;
49131;SDS011;35149;51.196;6.204;2023-08-06T02:11:00;3.55;;;1.80;;
49131;SDS011;35149;51.196;6.204;2023-08-06T02:13:29;1.67;;;1.58;;
49131;SDS011;35149;51.196;6.204;2023-08-06T02:15:56;2.83;;;1.88;;
49131;SDS011;35149;51.196;6.204;2023-08-06T02:18:24;2.45;;;1.80;;
49131;SDS011;35149;51.196;6.204;2023-08-06T02:20:56;3.30;;;1.90;;
49131;SDS011;35149;51.196;6.204;2023-08-06T02:23:24;2.03;;;1.70;;
49131;SDS011;35149;51.196;6.204;2023-08-06T02:25:58;2.88;;;1.92;;
49131;SDS011;35149;51.196;6.204;2023-08-06T02:28:31;1.58;;;1.40;;
49131;SDS011;35149;51.196;6.204;2023-08-06T02:30:58;3.42;;;1.58;;
49131;SDS011;35149;51.196;6.204;2023-08-06T02:33:25;2.78;;;1.90;;
49131;SDS011;35149;51.196;6.204;2023-08-06T02:36:00;3.45;;;1.80;;
49131;SDS011;35149;51.196;6.204;2023-08-06T02:38:29;2.70;;;1.48;;
49131;SDS011;35149;51.196;6.204;2023-08-06T02:40:57;1.70;;;1.60;;
49131;SDS011;35149;51.196;6.204;2023-08-06T02:43:28;2.70;;;1.55;;
49131;SDS011;35149;51.196;6.204;2023-08-06T02:45:58;3.38;;;1.52;;
49131;SDS011;35149;51.196;6.204;2023-08-06T02:48:38;2.55;;;1.60;;
49131;SDS011;35149;51.196;6.204;2023-08-06T02:51:08;2.55;;;1.85;;
49131;SDS011;35149;51.196;6.204;2023-08-06T02:53:35;3.05;;;1.83;;
49131;SDS011;35149;51.196;6.204;2023-08-06T02:56:09;4.28;;;1.90;;
49131;SDS011;35149;51.196;6.204;2023-08-06T02:58:50;2.10;;;1.45;;
49131;SDS011;35149;51.196;6.204;2023-08-06T03:01:29;2.38;;;1.67;;
49131;SDS011;35149;51.196;6.204;2023-08-06T03:04:06;4.40;;;2.15;;
49131;SDS011;35149;51.196;6.204;2023-08-06T03:06:40;2.17;;;1.60;;
49131;SDS011;35149;51.196;6.204;2023-08-06T03:09:08;2.72;;;1.73;;
49131;SDS011;35149;51.196;6.204;2023-08-06T03:11:38;2.05;;;1.70;;
49131;SDS011;35149;51.196;6.204;2023-08-06T03:14:11;2.50;;;1.58;;
49131;SDS011;35149;51.196;6.204;2023-08-06T03:16:39;3.35;;;1.77;;
49131;SDS011;35149;51.196;6.204;2023-08-06T03:19:05;2.25;;;2.05;;
49131;SDS011;35149;51.196;6.204;2023-08-06T03:21:33;2.92;;;2.13;;
49131;SDS011;35149;51.196;6.204;2023-08-06T03:24:01;2.30;;;1.75;;
49131;SDS011;35149;51.196;6.204;2023-08-06T03:26:32;2.43;;;2.10;;
49131;SDS011;35149;51.196;6.204;2023-08-06T03:29:00;3.35;;;2.08;;
49131;SDS011;35149;51.196;6.204;2023-08-06T03:31:30;2.05;;;1.50;;
49131;SDS011;35149;51.196;6.204;2023-08-06T03:33:58;2.17;;;1.60;;
49131;SDS011;35149;51.196;6.204;2023-08-06T03:36:26;3.38;;;2.13;;
49131;SDS011;35149;51.196;6.204;2023-08-06T03:38:54;3.55;;;1.63;;
49131;SDS011;35149;51.196;6.204;2023-08-06T03:41:21;4.55;;;1.95;;
49131;SDS011;35149;51.196;6.204;2023-08-06T03:43:50;3.70;;;1.95;;
49131;SDS011;35149;51.196;6.204;2023-08-06T03:46:25;3.75;;;1.92;;
49131;SDS011;35149;51.196;6.204;2023-08-06T03:49:00;2.60;;;1.70;;
49131;SDS011;35149;51.196;6.204;2023-08-06T03:51:27;2.13;;;1.63;;
49131;SDS011;35149;51.196;6.204;2023-08-06T03:53:56;3.33;;;1.88;;
49131;SDS011;35149;51.196;6.204;2023-08-06T03:56:22;4.03;;;1.90;;
49131;SDS011;35149;51.196;6.204;2023-08-06T03:58:53;4.18;;;1.90;;
49131;SDS011;35149;51.196;6.204;2023-08-06T04:01:26;2.65;;;1.75;;
49131;SDS011;35149;51.196;6.204;2023-08-06T04:03:56;2.15;;;1.85;;
49131;SDS011;35149;51.196;6.204;2023-08-06T04:06:25;2.47;;;1.92;;
49131;SDS011;35149;51.196;6.204;2023-08-06T04:08:51;2.47;;;1.60;;
49131;SDS011;35149;51.196;6.204;2023-08-06T04:11:18;1.67;;;1.55;;
49131;SDS011;35149;51.196;6.204;2023-08-06T04:13:44;1.63;;;1.33;;
49131;SDS011;35149;51.196;6.204;2023-08-06T04:16:14;2.38;;;1.67;;
49131;SDS011;35149;51.196;6.204;2023-08-06T04:18:41;1.42;;;1.27;;
49131;SDS011;35149;51.196;6.204;2023-08-06T04:21:12;4.18;;;1.42;;
49131;SDS011;35149;51.196;6.204;2023-08-06T04:23:39;2.53;;;1.58;;
49131;SDS011;35149;51.196;6.204;2023-08-06T04:26:07;1.30;;;1.20;;
49131;SDS011;35149;51.196;6.204;2023-08-06T04:28:36;1.48;;;1.38;;
49131;SDS011;35149;51.196;6.204;2023-08-06T04:31:03;2.15;;;1.95;;
49131;SDS011;35149;51.196;6.204;2023-08-06T04:33:33;4.30;;;2.35;;
49131;SDS011;35149;51.196;6.204;2023-08-06T04:36:08;1.00;;;1.00;;
49131;SDS011;35149;51.196;6.204;2023-08-06T04:38:35;2.03;;;1.77;;
49131;SDS011;35149;51.196;6.204;2023-08-06T04:41:02;1.75;;;1.65;;
49131;SDS011;35149;51.196;6.204;2023-08-06T04:43:36;1.45;;;1.30;;
49131;SDS011;35149;51.196;6.204;2023-08-06T04:46:03;1.80;;;1.50;;
49131;SDS011;35149;51.196;6.204;2023-08-06T04:48:30;1.75;;;1.55;;
49131;SDS011;35149;51.196;6.204;2023-08-06T04:50:56;2.25;;;1.40;;
49131;SDS011;35149;51.196;6.204;2023-08-06T04:53:23;2.55;;;1.50;;
49131;SDS011;35149;51.196;6.204;2023-08-06T04:55:52;2.42;;;1.52;;
49131;SDS011;35149;51.196;6.204;2023-08-06T04:58:21;1.10;;;1.00;;
49131;SDS011;35149;51.196;6.204;2023-08-06T05:00:52;1.10;;;0.70;;
49131;SDS011;35149;51.196;6.204;2023-08-06T05:03:25;1.30;;;1.20;;
49131;SDS011;35149;51.196;6.204;2023-08-06T05:05:54;1.58;;;1.10;;
49131;SDS011;35149;51.196;6.204;2023-08-06T05:08:22;1.20;;;1.10;;
49131;SDS011;35149;51.196;6.204;2023-08-06T05:10:51;4.78;;;1.30;;
49131;SDS011;35149;51.196;6.204;2023-08-06T05:13:24;1.95;;;0.85;;
49131;SDS011;35149;51.196;6.204;2023-08-06T05:15:56;1.13;;;0.75;;
49131;SDS011;35149;51.196;6.204;2023-08-06T05:18:26;1.23;;;0.95;;
49131;SDS011;35149;51.196;6.204;2023-08-06T05:20:55;0.85;;;0.80;;
49131;SDS011;35149;51.196;6.204;2023-08-06T05:23:26;1.45;;;0.80;;
49131;SDS011;35149;51.196;6.204;2023-08-06T05:25:52;0.75;;;0.75;;
49131;SDS011;35149;51.196;6.204;2023-08-06T05:28:24;0.80;;;0.80;;
49131;SDS011;35149;51.196;6.204;2023-08-06T05:30:53;1.73;;;0.85;;
49131;SDS011;35149;51.196;6.204;2023-08-06T05:33:20;0.98;;;0.68;;
49131;SDS011;35149;51.196;6.204;2023-08-06T05:35:49;1.67;;;0.80;;
49131;SDS011;35149;51.196;6.204;2023-08-06T05:38:18;0.75;;;0.60;;
49131;SDS011;35149;51.196;6.204;2023-08-06T05:40:47;0.77;;;0.75;;
49131;SDS011;35149;51.196;6.204;2023-08-06T05:43:19;1.08;;;0.70;;
49131;SDS011;35149;51.196;6.204;2023-08-06T05:45:45;1.35;;;0.45;;
49131;SDS011;35149;51.196;6.204;2023-08-06T05:48:13;0.98;;;0.57;;
49131;SDS011;35149;51.196;6.204;2023-08-06T05:50:46;0.73;;;0.40;;
49131;SDS011;35149;51.196;6.204;2023-08-06T05:53:15;0.40;;;0.40;;
49131;SDS011;35149;51.196;6.204;2023-08-06T05:55:46;0.98;;;0.40;;
49131;SDS011;35149;51.196;6.204;2023-08-06T05:58:16;0.80;;;0.40;;
49131;SDS011;35149;51.196;6.204;2023-08-06T06:00:43;1.30;;;0.40;;
49131;SDS011;35149;51.196;6.204;2023-08-06T06:03:10;2.63;;;0.65;;
49131;SDS011;35149;51.196;6.204;2023-08-06T06:05:37;0.40;;;0.40;;
49131;SDS011;35149;51.196;6.204;2023-08-06T06:08:07;1.05;;;0.40;;
49131;SDS011;35149;51.196;6.204;2023-08-06T06:10:34;0.77;;;0.40;;
49131;SDS011;35149;51.196;6.204;2023-08-06T06:13:01;0.30;;;0.30;;
49131;SDS011;35149;51.196;6.204;2023-08-06T06:15:30;0.57;;;0.38;;
49131;SDS011;35149;51.196;6.204;2023-08-06T06:17:57;0.80;;;0.30;;
49131;SDS011;35149;51.196;6.204;2023-08-06T06:20:32;1.38;;;0.40;;
49131;SDS011;35149;51.196;6.204;2023-08-06T06:23:02;0.47;;;0.38;;
49131;SDS011;35149;51.196;6.204;2023-08-06T06:25:31;0.35;;;0.35;;
49131;SDS011;35149;51.196;6.204;2023-08-06T06:28:00;0.50;;;0.30;;
49131;SDS011;35149;51.196;6.204;2023-08-06T06:30:27;0.55;;;0.22;;
49131;SDS011;35149;51.196;6.204;2023-08-06T06:32:54;0.30;;;0.30;;
49131;SDS011;35149;51.196;6.204;2023-08-06T06:35:28;0.57;;;0.40;;
49131;SDS011;35149;51.196;6.204;2023-08-06T06:37:55;1.58;;;0.50;;
49131;SDS011;35149;51.196;6.204;2023-08-06T06:40:23;0.40;;;0.40;;
49131;SDS011;35149;51.196;6.204;2023-08-06T06:42:53;0.40;;;0.40;;
49131;SDS011;35149;51.196;6.204;2023-08-06T06:45:26;0.75;;;0.45;;
49131;SDS011;35149;51.196;6.204;2023-08-06T06:47:55;0.82;;;0.40;;
49131;SDS011;35149;51.196;6.204;2023-08-06T06:50:22;0.55;;;0.30;;
49131;SDS011;35149;51.196;6.204;2023-08-06T06:52:48;1.35;;;0.30;;
49131;SDS011;35149;51.196;6.204;2023-08-06T06:55:15;0.98;;;0.55;;
49131;SDS011;35149;51.196;6.204;2023-08-06T06:57:42;1.20;;;0.20;;
49131;SDS011;35149;51.196;6.204;2023-08-06T07:00:09;3.08;;;0.85;;
49131;SDS011;35149;51.196;6.204;2023-08-06T07:02:36;1.55;;;0.68;;
49131;SDS011;35149;51.196;6.204;2023-08-06T07:05:02;1.65;;;0.40;;
49131;SDS011;35149;51.196;6.204;2023-08-06T07:07:29;0.30;;;0.30;;
49131;SDS011;35149;51.196;6.204;2023-08-06T07:09:56;0.60;;;0.30;;
49131;SDS011;35149;51.196;6.204;2023-08-06T07:12:22;0.50;;;0.50;;
49131;SDS011;35149;51.196;6.204;2023-08-06T07:14:50;1.05;;;0.47;;
49131;SDS011;35149;51.196;6.204;2023-08-06T07:17:16;0.73;;;0.40;;
49131;SDS011;35149;51.196;6.204;2023-08-06T07:19:43;0.40;;;0.40;;
49131;SDS011;35149;51.196;6.204;2023-08-06T07:22:10;0.38;;;0.30;;
49131;SDS011;35149;51.196;6.204;2023-08-06T07:24:37;2.33;;;1.15;;
49131;SDS011;35149;51.196;6.204;2023-08-06T07:27:04;1.60;;;0.50;;
49131;SDS011;35149;51.196;6.204;2023-08-06T07:29:31;0.68;;;0.43;;
49131;SDS011;35149;51.196;6.204;2023-08-06T07:31:57;0.68;;;0.68;;
49131;SDS011;35149;51.196;6.204;2023-08-06T07:34:24;1.02;;;0.50;;
49131;SDS011;35149;51.196;6.204;2023-08-06T07:36:51;0.98;;;0.60;;
49131;SDS011;35149;51.196;6.204;2023-08-06T07:39:18;0.82;;;0.60;;
49131;SDS011;35149;51.196;6.204;2023-08-06T07:41:44;1.67;;;0.50;;
49131;SDS011;35149;51.196;6.204;2023-08-06T07:44:12;1.27;;;1.17;;
49131;SDS011;35149;51.196;6.204;2023-08-06T07:46:38;1.48;;;0.63;;
49131;SDS011;35149;51.196;6.204;2023-08-06T07:49:05;0.90;;;0.80;;
49131;SDS011;35149;51.196;6.204;2023-08-06T07:51:32;1.30;;;0.80;;
49131;SDS011;35149;51.196;6.204;2023-08-06T07:53:58;2.13;;;0.80;;
49131;SDS011;35149;51.196;6.204;2023-08-06T07:56:25;1.60;;;1.10;;
49131;SDS011;35149;51.196;6.204;2023-08-06T07:58:52;0.60;;;0.57;;
49131;SDS011;35149;51.196;6.204;2023-08-06T08:01:18;1.33;;;0.57;;
49131;SDS011;35149;51.196;6.204;2023-08-06T08:03:45;0.55;;;0.55;;
49131;SDS011;35149;51.196;6.204;2023-08-06T08:06:12;1.10;;;0.60;;
49131;SDS011;35149;51.196;6.204;2023-08-06T08:08:39;0.30;;;0.30;;
49131;SDS011;35149;51.196;6.204;2023-08-06T08:11:05;0.30;;;0.30;;
49131;SDS011;35149;51.196;6.204;2023-08-06T08:13:32;0.68;;;0.47;;
49131;SDS011;35149;51.196;6.204;2023-08-06T08:16:01;0.40;;;0.40;;
49131;SDS011;35149;51.196;6.204;2023-08-06T08:18:28;0.60;;;0.50;;
49131;SDS011;35149;51.196;6.204;2023-08-06T08:20:55;0.38;;;0.38;;
49131;SDS011;35149;51.196;6.204;2023-08-06T08:23:22;0.60;;;0.60;;
49131;SDS011;35149;51.196;6.204;2023-08-06T08:25:49;0.55;;;0.50;;
49131;SDS011;35149;51.196;6.204;2023-08-06T08:28:16;0.70;;;0.70;;
49131;SDS011;35149;51.196;6.204;2023-08-06T08:30:42;1.23;;;0.88;;
49131;SDS011;35149;51.196;6.204;2023-08-06T08:33:09;3.45;;;1.20;;
49131;SDS011;35149;51.196;6.204;2023-08-06T08:35:36;1.20;;;1.10;;
49131;SDS011;35149;51.196;6.204;2023-08-06T08:38:03;1.65;;;1.35;;
49131;SDS011;35149;51.196;6.204;2023-08-06T08:40:31;2.08;;;1.40;;
49131;SDS011;35149;51.196;6.204;2023-08-06T08:43:00;1.90;;;1.70;;
49131;SDS011;35149;51.196;6.204;2023-08-06T08:45:28;1.70;;;1.60;;
49131;SDS011;35149;51.196;6.204;2023-08-06T08:47:56;2.03;;;1.75;;
49131;SDS011;35149;51.196;6.204;2023-08-06T08:50:23;2.63;;;2.00;;
49131;SDS011;35149;51.196;6.204;2023-08-06T08:52:50;2.00;;;1.80;;
49131;SDS011;35149;51.196;6.204;2023-08-06T08:55:17;1.45;;;1.25;;
49131;SDS011;35149;51.196;6.204;2023-08-06T08:57:47;1.80;;;1.27;;
49131;SDS011;35149;51.196;6.204;2023-08-06T09:00:14;1.42;;;1.20;;
49131;SDS011;35149;51.196;6.204;2023-08-06T09:02:40;0.90;;;0.80;;
49131;SDS011;35149;51.196;6.204;2023-08-06T09:05:09;0.73;;;0.73;;
49131;SDS011;35149;51.196;6.204;2023-08-06T09:07:39;1.15;;;1.05;;
49131;SDS011;35149;51.196;6.204;2023-08-06T09:10:10;0.93;;;0.93;;
49131;SDS011;35149;51.196;6.204;2023-08-06T09:12:39;2.03;;;0.80;;
49131;SDS011;35149;51.196;6.204;2023-08-06T09:15:07;0.90;;;0.90;;
49131;SDS011;35149;51.196;6.204;2023-08-06T09:17:34;0.85;;;0.85;;
49131;SDS011;35149;51.196;6.204;2023-08-06T09:20:08;1.25;;;1.15;;
49131;SDS011;35149;51.196;6.204;2023-08-06T09:22:36;1.10;;;1.00;;
49131;SDS011;35149;51.196;6.204;2023-08-06T09:25:03;1.90;;;1.75;;
49131;SDS011;35149;51.196;6.204;2023-08-06T09:30:03;1.33;;;1.23;;
49131;SDS011;35149;51.196;6.204;2023-08-06T09:32:51;2.55;;;1.50;;
49131;SDS011;35149;51.196;6.204;2023-08-06T09:35:18;1.30;;;1.20;;
49131;SDS011;35149;51.196;6.204;2023-08-06T09:37:47;1.20;;;1.20;;
49131;SDS011;35149;51.196;6.204;2023-08-06T09:40:27;1.90;;;1.80;;
49131;SDS011;35149;51.196;6.204;2023-08-06T09:42:56;1.45;;;1.35;;
49131;SDS011;35149;51.196;6.204;2023-08-06T09:45:23;2.22;;;1.80;;
49131;SDS011;35149;51.196;6.204;2023-08-06T09:47:56;2.00;;;1.50;;
49131;SDS011;35149;51.196;6.204;2023-08-06T09:50:29;1.80;;;1.70;;
49131;SDS011;35149;51.196;6.204;2023-08-06T09:53:01;1.58;;;1.20;;
49131;SDS011;35149;51.196;6.204;2023-08-06T09:55:29;1.30;;;1.20;;
49131;SDS011;35149;51.196;6.204;2023-08-06T09:57:56;1.15;;;0.90;;
49131;SDS011;35149;51.196;6.204;2023-08-06T10:00:24;1.10;;;1.00;;
49131;SDS011;35149;51.196;6.204;2023-08-06T10:02:52;1.83;;;1.13;;
49131;SDS011;35149;51.196;6.204;2023-08-06T10:05:21;1.25;;;1.15;;
49131;SDS011;35149;51.196;6.204;2023-08-06T10:07:49;2.10;;;1.55;;
49131;SDS011;35149;51.196;6.204;2023-08-06T10:10:17;3.10;;;1.50;;
49131;SDS011;35149;51.196;6.204;2023-08-06T10:12:49;1.75;;;1.33;;
49131;SDS011;35149;51.196;6.204;2023-08-06T10:15:21;3.65;;;1.77;;
49131;SDS011;35149;51.196;6.204;2023-08-06T10:17:51;3.00;;;1.60;;
49131;SDS011;35149;51.196;6.204;2023-08-06T10:20:21;3.45;;;2.35;;
49131;SDS011;35149;51.196;6.204;2023-08-06T10:23:13;2.75;;;2.00;;
49131;SDS011;35149;51.196;6.204;2023-08-06T10:25:40;5.15;;;1.70;;
49131;SDS011;35149;51.196;6.204;2023-08-06T10:30:44;2.67;;;1.75;;
49131;SDS011;35149;51.196;6.204;2023-08-06T10:33:12;3.58;;;1.52;;
49131;SDS011;35149;51.196;6.204;2023-08-06T10:35:50;3.17;;;2.80;;
49131;SDS011;35149;51.196;6.204;2023-08-06T10:38:20;2.63;;;2.00;;
49131;SDS011;35149;51.196;6.204;2023-08-06T10:45:53;2.97;;;1.80;;
49131;SDS011;35149;51.196;6.204;2023-08-06T10:48:37;3.17;;;1.90;;
49131;SDS011;35149;51.196;6.204;2023-08-06T10:51:10;4.68;;;2.58;;
49131;SDS011;35149;51.196;6.204;2023-08-06T10:53:38;2.83;;;1.63;;
49131;SDS011;35149;51.196;6.204;2023-08-06T10:56:12;2.92;;;1.70;;
49131;SDS011;35149;51.196;6.204;2023-08-06T10:58:42;1.55;;;1.10;;
49131;SDS011;35149;51.196;6.204;2023-08-06T11:01:10;1.60;;;1.23;;
49131;SDS011;35149;51.196;6.204;2023-08-06T11:03:38;3.20;;;1.23;;
49131;SDS011;35149;51.196;6.204;2023-08-06T11:06:08;1.85;;;1.05;;
49131;SDS011;35149;51.196;6.204;2023-08-06T11:08:36;3.33;;;1.33;;
49131;SDS011;35149;51.196;6.204;2023-08-06T11:11:07;1.63;;;1.27;;
49131;SDS011;35149;51.196;6.204;2023-08-06T11:13:42;1.15;;;1.08;;
49131;SDS011;35149;51.196;6.204;2023-08-06T11:16:13;2.38;;;1.52;;
49131;SDS011;35149;51.196;6.204;2023-08-06T11:18:42;1.50;;;1.00;;
49131;SDS011;35149;51.196;6.204;2023-08-06T11:21:11;1.83;;;1.10;;
49131;SDS011;35149;51.196;6.204;2023-08-06T11:23:40;3.08;;;1.20;;
49131;SDS011;35149;51.196;6.204;2023-08-06T11:26:10;3.10;;;1.10;;
49131;SDS011;35149;51.196;6.204;2023-08-06T11:28:36;3.00;;;1.48;;
49131;SDS011;35149;51.196;6.204;2023-08-06T11:31:03;3.17;;;1.40;;
49131;SDS011;35149;51.196;6.204;2023-08-06T11:33:30;1.48;;;0.90;;
49131;SDS011;35149;51.196;6.204;2023-08-06T11:35:58;1.20;;;0.88;;
49131;SDS011;35149;51.196;6.204;2023-08-06T11:38:26;1.25;;;0.82;;
49131;SDS011;35149;51.196;6.204;2023-08-06T11:40:54;3.85;;;1.70;;
49131;SDS011;35149;51.196;6.204;2023-08-06T11:43:21;1.20;;;0.90;;
49131;SDS011;35149;51.196;6.204;2023-08-06T11:45:50;1.63;;;1.10;;
49131;SDS011;35149;51.196;6.204;2023-08-06T11:48:18;2.30;;;0.82;;
49131;SDS011;35149;51.196;6.204;2023-08-06T11:50:45;1.95;;;1.10;;
49131;SDS011;35149;51.196;6.204;2023-08-06T11:53:13;1.65;;;1.27;;
49131;SDS011;35149;51.196;6.204;2023-08-06T11:55:42;1.65;;;1.10;;
49131;SDS011;35149;51.196;6.204;2023-08-06T11:58:10;3.65;;;1.52;;
49131;SDS011;35149;51.196;6.204;2023-08-06T12:00:38;3.55;;;1.80;;
49131;SDS011;35149;51.196;6.204;2023-08-06T12:03:05;4.20;;;1.80;;
49131;SDS011;35149;51.196;6.204;2023-08-06T12:05:32;3.55;;;1.70;;
49131;SDS011;35149;51.196;6.204;2023-08-06T12:08:00;3.50;;;1.80;;
49131;SDS011;35149;51.196;6.204;2023-08-06T12:10:30;4.22;;;1.70;;
49131;SDS011;35149;51.196;6.204;2023-08-06T12:12:58;3.58;;;1.58;;
49131;SDS011;35149;51.196;6.204;2023-08-06T12:15:25;3.78;;;1.95;;
49131;SDS011;35149;51.196;6.204;2023-08-06T12:17:52;8.23;;;2.20;;
49131;SDS011;35149;51.196;6.204;2023-08-06T12:20:19;3.42;;;1.63;;
49131;SDS011;35149;51.196;6.204;2023-08-06T12:22:48;2.67;;;1.52;;
49131;SDS011;35149;51.196;6.204;2023-08-06T12:25:15;3.60;;;1.67;;
49131;SDS011;35149;51.196;6.204;2023-08-06T12:27:42;4.45;;;1.80;;
49131;SDS011;35149;51.196;6.204;2023-08-06T12:30:10;2.33;;;1.77;;
49131;SDS011;35149;51.196;6.204;2023-08-06T12:32:38;3.17;;;1.95;;
49131;SDS011;35149;51.196;6.204;2023-08-06T12:35:05;2.88;;;1.63;;
49131;SDS011;35149;51.196;6.204;2023-08-06T12:37:33;2.25;;;1.92;;
49131;SDS011;35149;51.196;6.204;2023-08-06T12:40:01;2.65;;;2.13;;
49131;SDS011;35149;51.196;6.204;2023-08-06T12:42:47;4.68;;;1.83;;
49131;SDS011;35149;51.196;6.204;2023-08-06T12:45:16;4.22;;;2.45;;
49131;SDS011;35149;51.196;6.204;2023-08-06T12:47:43;3.28;;;2.05;;
49131;SDS011;35149;51.196;6.204;2023-08-06T12:50:09;4.07;;;2.83;;
49131;SDS011;35149;51.196;6.204;2023-08-06T12:52:36;4.05;;;1.40;;
49131;SDS011;35149;51.196;6.204;2023-08-06T12:55:03;2.78;;;1.50;;
49131;SDS011;35149;51.196;6.204;2023-08-06T12:57:30;5.88;;;1.95;;
49131;SDS011;35149;51.196;6.204;2023-08-06T13:00:16;2.15;;;1.50;;
49131;SDS011;35149;51.196;6.204;2023-08-06T13:02:43;3.78;;;2.10;;
49131;SDS011;35149;51.196;6.204;2023-08-06T13:05:10;3.08;;;1.70;;
49131;SDS011;35149;51.196;6.204;2023-08-06T13:07:37;2.92;;;1.75;;
49131;SDS011;35149;51.196;6.204;2023-08-06T13:10:03;2.47;;;1.98;;
49131;SDS011;35149;51.196;6.204;2023-08-06T13:12:31;1.88;;;1.70;;
49131;SDS011;35149;51.196;6.204;2023-08-06T13:14:57;5.70;;;2.03;;
49131;SDS011;35149;51.196;6.204;2023-08-06T13:17:25;2.95;;;1.80;;
49131;SDS011;35149;51.196;6.204;2023-08-06T13:19:53;4.25;;;2.17;;
49131;SDS011;35149;51.196;6.204;2023-08-06T13:22:19;3.15;;;1.92;;
49131;SDS011;35149;51.196;6.204;2023-08-06T13:24:46;2.03;;;1.77;;
49131;SDS011;35149;51.196;6.204;2023-08-06T13:27:13;3.15;;;1.90;;
49131;SDS011;35149;51.196;6.204;2023-08-06T13:29:39;7.28;;;2.15;;
49131;SDS011;35149;51.196;6.204;2023-08-06T13:32:06;6.43;;;2.22;;
49131;SDS011;35149;51.196;6.204;2023-08-06T13:34:33;60.08;;;5.80;;
49131;SDS011;35149;51.196;6.204;2023-08-06T13:36:59;5.18;;;1.67;;
49131;SDS011;35149;51.196;6.204;2023-08-06T13:39:26;4.45;;;1.65;;
49131;SDS011;35149;51.196;6.204;2023-08-06T13:41:53;4.43;;;1.50;;
49131;SDS011;35149;51.196;6.204;2023-08-06T13:44:19;3.88;;;1.27;;
49131;SDS011;35149;51.196;6.204;2023-08-06T13:46:46;5.38;;;1.85;;
49131;SDS011;35149;51.196;6.204;2023-08-06T13:49:13;4.50;;;1.27;;
49131;SDS011;35149;51.196;6.204;2023-08-06T13:51:39;2.63;;;1.33;;
49131;SDS011;35149;51.196;6.204;2023-08-06T13:54:08;3.03;;;1.85;;
49131;SDS011;35149;51.196;6.204;2023-08-06T13:56:35;1.70;;;1.00;;
49131;SDS011;35149;51.196;6.204;2023-08-06T13:59:03;2.60;;;1.45;;
49131;SDS011;35149;51.196;6.204;2023-08-06T14:01:30;2.53;;;1.00;;
49131;SDS011;35149;51.196;6.204;2023-08-06T14:04:13;2.80;;;0.90;;
49131;SDS011;35149;51.196;6.204;2023-08-06T14:06:39;1.08;;;1.02;;
49131;SDS011;35149;51.196;6.204;2023-08-06T14:09:06;2.55;;;1.20;;
49131;SDS011;35149;51.196;6.204;2023-08-06T14:11:34;2.70;;;1.38;;
49131;SDS011;35149;51.196;6.204;2023-08-06T14:14:00;5.20;;;1.40;;
49131;SDS011;35149;51.196;6.204;2023-08-06T14:16:47;2.40;;;1.30;;
49131;SDS011;35149;51.196;6.204;2023-08-06T14:19:13;3.63;;;1.45;;
49131;SDS011;35149;51.196;6.204;2023-08-06T14:21:40;4.07;;;1.73;;
49131;SDS011;35149;51.196;6.204;2023-08-06T14:24:10;1.52;;;1.35;;
49131;SDS011;35149;51.196;6.204;2023-08-06T14:26:37;3.33;;;1.45;;
49131;SDS011;35149;51.196;6.204;2023-08-06T14:29:03;3.85;;;1.77;;
49131;SDS011;35149;51.196;6.204;2023-08-06T14:31:30;4.88;;;1.58;;
49131;SDS011;35149;51.196;6.204;2023-08-06T14:33:57;2.47;;;1.20;;
49131;SDS011;35149;51.196;6.204;2023-08-06T14:36:24;3.20;;;1.77;;
49131;SDS011;35149;51.196;6.204;2023-08-06T14:38:51;2.45;;;0.85;;
49131;SDS011;35149;51.196;6.204;2023-08-06T14:41:25;3.22;;;1.40;;
49131;SDS011;35149;51.196;6.204;2023-08-06T14:43:52;5.80;;;1.50;;
49131;SDS011;35149;51.196;6.204;2023-08-06T14:46:20;6.72;;;1.63;;
49131;SDS011;35149;51.196;6.204;2023-08-06T14:48:47;9.98;;;2.03;;
49131;SDS011;35149;51.196;6.204;2023-08-06T14:51:13;2.53;;;1.00;;
49131;SDS011;35149;51.196;6.204;2023-08-06T14:53:40;3.35;;;0.95;;
49131;SDS011;35149;51.196;6.204;2023-08-06T14:56:07;3.88;;;0.98;;
49131;SDS011;35149;51.196;6.204;2023-08-06T14:58:33;3.63;;;1.58;;
49131;SDS011;35149;51.196;6.204;2023-08-06T15:01:00;2.47;;;1.15;;
49131;SDS011;35149;51.196;6.204;2023-08-06T15:03:27;4.22;;;1.20;;
49131;SDS011;35149;51.196;6.204;2023-08-06T15:05:54;3.17;;;0.90;;
49131;SDS011;35149;51.196;6.204;2023-08-06T15:08:21;2.95;;;0.98;;
49131;SDS011;35149;51.196;6.204;2023-08-06T15:10:51;1.75;;;1.25;;
49131;SDS011;35149;51.196;6.204;2023-08-06T15:13:21;3.28;;;1.30;;
49131;SDS011;35149;51.196;6.204;2023-08-06T15:15:48;1.42;;;0.93;;